Impacts TAF Board INFO
FOR SITUATIONAL AWARENESS. NOT TO BE USED FOR FLIGHT PLANNING PURPOSES.
IDs:

KDTW - Detroit Metro/Wayne, MI, US

Issued at 2057 UTC 25 May 2018
Updated at 2232 UTC 25 May 2018
Potential Impact None Slight Moderate High
Time<<26/23Z 27/00Z 27/01Z 27/02Z 27/03Z 27/04Z 27/05Z 27/06Z 27/07Z 27/08Z 27/09Z 27/10Z 27/11Z
Type PRVL
VIS >6
CIG 200
Cover BKN
FltCat VFR
WX --
WDir 220
WSpd 8
WGst --

Raw TAF
KDTW 252057Z 2521/2624 21008KT P6SM FEW060 FEW250
  FM252300 17005KT P6SM SCT250
  FM261200 22006KT P6SM BKN200
  FM261500 22008KT P6SM SCT050 BKN200


METAR Board
Radar Display
Forecast Discussion

FOR SITUATIONAL AWARENESS. NOT TO BE USED FOR FLIGHT PLANNING PURPOSES.